LFMO 210400Z AUTO 35028G38KT CAVOK 04/M02 Q1022 NOSIG

ElémentsDécodage
LFMO Station météo située sur l'aérodrome de ORANGE Caritat
210400Z émis le 21 du mois à 04h00 UTC
AUTO Bulletin édité par un automate
35028G38KT vent du 350°, moyenne: 28 noeuds, avec rafales à 38 noeuds
CAVOK Ceiling And Visibility OK
- Visibilité de 10 Km ou plus
- Pas de nuage au-dessous de 1500m ou au-dessous de l'altitude minimale du secteur la plus élevée (si>1500m) et absence de CB
- pas de temps présent significatif
04/M02 température 04°C, point de rosée -02°C
 soit une humidité relative de 65%
Q1022 la pression au niveau de la mer (QNH) est de 1022 hPa
NOSIG Pas de changement significatif prévu au cours des deux heures suivant l'heure de l'observation